createdAt,value
2023-05-16T00:01:55.902Z,100470.16
2023-05-16T00:04:57.988Z,100470.03
2023-05-16T00:07:59.736Z,100475.53
2023-05-16T00:11:01.753Z,100471.81
2023-05-16T00:14:04.153Z,100474.72
2023-05-16T00:17:12.341Z,100475.78
2023-05-16T00:20:17.434Z,100468.03
2023-05-16T00:23:22.512Z,100471.06
2023-05-16T00:26:24.300Z,100468.56
2023-05-16T00:29:26.705Z,100462.13
2023-05-16T00:32:28.525Z,100458.22
2023-05-16T00:35:30.779Z,100464.47
2023-05-16T00:38:32.528Z,100461.31
2023-05-16T00:41:34.990Z,100464.63
2023-05-16T00:44:36.716Z,100456.38
2023-05-16T00:47:38.412Z,100459.72
2023-05-16T00:50:40.925Z,100465.41
2023-05-16T00:53:42.723Z,100470.22
2023-05-16T00:56:44.400Z,100475.34
2023-05-16T00:59:50.189Z,100480.78
2023-05-16T01:02:53.738Z,100466.94
2023-05-16T01:05:56.707Z,100471.69
2023-05-16T01:08:58.467Z,100465.53
2023-05-16T01:12:22.484Z,100467.31
2023-05-16T01:15:45.585Z,100475.53
2023-05-16T01:19:24.930Z,100475.78
2023-05-16T01:22:35.188Z,100487.84
2023-05-16T01:26:11.900Z,100481.97
2023-05-16T01:29:15.948Z,100476.53
2023-05-16T01:32:18.007Z,100478.13
2023-05-16T01:35:23.133Z,100478.78
2023-05-16T01:38:53.327Z,100472.00
2023-05-16T01:42:09.510Z,100467.28
2023-05-16T01:45:27.742Z,100464.09
2023-05-16T01:48:38.842Z,100457.59
2023-05-16T01:51:42.195Z,100467.75
2023-05-16T01:54:46.628Z,100472.69
2023-05-16T01:57:50.728Z,100475.91
2023-05-16T02:01:04.468Z,100486.25
2023-05-16T02:04:06.649Z,100483.28
2023-05-16T02:07:12.952Z,100483.28
2023-05-16T02:10:15.012Z,100489.06
2023-05-16T02:13:17.104Z,100492.34
2023-05-16T02:16:19.384Z,100489.91
2023-05-16T02:19:22.563Z,100494.13
2023-05-16T02:22:24.516Z,100499.91
2023-05-16T02:25:26.754Z,100487.41
2023-05-16T02:28:28.986Z,100497.16
2023-05-16T02:31:32.724Z,100497.06
2023-05-16T02:34:34.800Z,100498.25
2023-05-16T02:37:37.379Z,100501.44
2023-05-16T02:40:39.067Z,100501.09
2023-05-16T02:43:41.022Z,100494.56
2023-05-16T02:46:45.087Z,100502.31
2023-05-16T02:49:46.869Z,100505.09
2023-05-16T02:52:48.821Z,100501.47
2023-05-16T02:55:51.050Z,100519.72
2023-05-16T02:58:55.955Z,100510.44
2023-05-16T03:01:58.232Z,100506.53
2023-05-16T03:05:01.449Z,100520.91
2023-05-16T03:08:05.660Z,100512.56
2023-05-16T03:11:09.678Z,100524.25
2023-05-16T03:14:12.126Z,100529.28
2023-05-16T03:17:14.025Z,100519.38
2023-05-16T03:20:15.797Z,100523.50
2023-05-16T03:23:18.331Z,100522.31
2023-05-16T03:26:21.442Z,100530.09
2023-05-16T03:29:26.197Z,100542.09
2023-05-16T03:32:28.285Z,100552.91
2023-05-16T03:35:33.680Z,100556.94
2023-05-16T03:38:36.076Z,100554.13
2023-05-16T03:41:38.127Z,100568.47
2023-05-16T03:44:41.382Z,100566.09
2023-05-16T03:47:43.470Z,100561.16
2023-05-16T03:50:45.771Z,100558.44
2023-05-16T03:53:47.860Z,100567.38
2023-05-16T03:56:49.872Z,100554.22
2023-05-16T03:59:51.564Z,100556.66
2023-05-16T04:02:53.651Z,100567.25
2023-05-16T04:05:56.818Z,100568.56
2023-05-16T04:08:58.517Z,100560.56
2023-05-16T04:12:02.682Z,100584.44
2023-05-16T04:15:05.777Z,100571.97
2023-05-16T04:18:07.876Z,100565.84
2023-05-16T04:21:11.582Z,100572.44
2023-05-16T04:24:13.321Z,100577.63
2023-05-16T04:27:15.498Z,100576.59
2023-05-16T04:30:17.821Z,100585.53
2023-05-16T04:33:19.885Z,100585.38
2023-05-16T04:36:22.028Z,100587.25
2023-05-16T04:39:24.809Z,100601.00
2023-05-16T04:42:26.930Z,100603.84
2023-05-16T04:45:30.093Z,100605.16
2023-05-16T04:48:32.326Z,100603.94
2023-05-16T04:51:37.306Z,100616.66
2023-05-16T04:54:39.950Z,100611.00
2023-05-16T04:57:41.643Z,100622.75
2023-05-16T05:00:43.546Z,100632.75
2023-05-16T05:03:48.074Z,100643.97
2023-05-16T05:06:50.119Z,100648.06
2023-05-16T05:09:53.686Z,100645.22
2023-05-16T05:12:55.298Z,100663.44
2023-05-16T05:15:57.730Z,100653.09
2023-05-16T05:18:59.968Z,100656.28
2023-05-16T05:22:01.999Z,100663.22
2023-05-16T05:25:05.569Z,100663.34
2023-05-16T05:28:07.353Z,100659.09
2023-05-16T05:31:09.287Z,100676.66
2023-05-16T05:34:11.161Z,100685.63
2023-05-16T05:37:13.126Z,100672.31
2023-05-16T05:40:17.174Z,100692.19
2023-05-16T05:43:19.039Z,100691.47
2023-05-16T05:46:21.168Z,100697.13
2023-05-16T05:49:26.911Z,100698.09
2023-05-16T05:52:28.991Z,100708.94
2023-05-16T05:55:31.371Z,100701.84
2023-05-16T05:58:33.753Z,100716.44
2023-05-16T06:01:35.691Z,100722.09
2023-05-16T06:04:37.828Z,100740.91
2023-05-16T06:07:39.734Z,100732.34
2023-05-16T06:10:41.577Z,100743.28
2023-05-16T06:13:43.963Z,100747.88
2023-05-16T06:16:45.783Z,100749.75
2023-05-16T06:19:47.948Z,100751.28
2023-05-16T06:22:49.865Z,100749.88
2023-05-16T06:25:52.052Z,100751.88
2023-05-16T06:28:54.001Z,100758.59
2023-05-16T06:31:55.821Z,100762.97
2023-05-16T06:34:58.984Z,100766.84
2023-05-16T06:38:00.825Z,100767.56
2023-05-16T06:41:05.056Z,100759.19
2023-05-16T06:44:07.174Z,100748.25
2023-05-16T06:47:09.092Z,100765.44
2023-05-16T06:50:11.625Z,100764.47
2023-05-16T06:53:14.791Z,100776.13
2023-05-16T06:56:16.713Z,100767.28
2023-05-16T06:59:18.910Z,100787.06
2023-05-16T07:02:21.136Z,100777.88
2023-05-16T07:05:23.334Z,100770.81
2023-05-16T07:08:26.213Z,100773.31
2023-05-16T07:11:28.598Z,100775.91
2023-05-16T07:14:30.647Z,100775.59
2023-05-16T07:17:32.720Z,100782.06
2023-05-16T07:20:35.247Z,100782.81
2023-05-16T07:23:37.593Z,100795.31
2023-05-16T07:26:39.412Z,100778.63
2023-05-16T07:29:41.895Z,100787.78
2023-05-16T07:32:46.363Z,100784.84
2023-05-16T07:35:48.346Z,100784.50
2023-05-16T07:38:50.376Z,100795.09
2023-05-16T07:41:52.802Z,100796.28
2023-05-16T07:44:54.513Z,100792.84
2023-05-16T07:47:56.653Z,100795.78
2023-05-16T07:50:58.930Z,100778.91
2023-05-16T07:54:01.670Z,100789.09
2023-05-16T07:57:04.559Z,100794.78
2023-05-16T08:00:07.624Z,100803.59
2023-05-16T08:03:14.576Z,100808.16
2023-05-16T08:06:17.137Z,100805.28
2023-05-16T08:09:19.667Z,100804.97
2023-05-16T08:12:22.151Z,100811.50
2023-05-16T08:15:24.571Z,100810.59
2023-05-16T08:18:26.886Z,100813.38
2023-05-16T08:21:29.200Z,100825.06
2023-05-16T08:24:31.720Z,100824.03
2023-05-16T08:27:33.898Z,100812.50
2023-05-16T08:30:35.700Z,100817.31
2023-05-16T08:33:40.046Z,100816.25
2023-05-16T08:36:42.349Z,100826.44
2023-05-16T08:39:44.400Z,100821.91
2023-05-16T08:42:46.862Z,100819.66
2023-05-16T08:45:49.487Z,100824.81
2023-05-16T08:48:54.809Z,100824.41
2023-05-16T08:51:58.578Z,100817.19
2023-05-16T08:55:14.311Z,100826.94
2023-05-16T08:58:17.724Z,100814.66
2023-05-16T09:01:21.045Z,100803.63
2023-05-16T09:04:25.702Z,100812.34
2023-05-16T09:07:27.911Z,100813.59
2023-05-16T09:10:30.066Z,100818.69
2023-05-16T09:13:31.994Z,100819.59
2023-05-16T09:16:34.112Z,100828.38
2023-05-16T09:19:44.116Z,100806.44
2023-05-16T09:23:01.115Z,100810.03
2023-05-16T09:26:05.705Z,100832.69
2023-05-16T09:29:15.255Z,100826.44
2023-05-16T09:32:17.641Z,100820.91
2023-05-16T09:35:39.635Z,100825.28
2023-05-16T09:38:46.057Z,100822.41
2023-05-16T09:41:52.710Z,100827.53
2023-05-16T09:44:56.612Z,100822.97
2023-05-16T09:48:18.345Z,100818.78
2023-05-16T09:51:23.003Z,100806.66
2023-05-16T09:54:35.164Z,100807.50
2023-05-16T09:57:39.940Z,100807.34
2023-05-16T10:00:42.845Z,100816.88
2023-05-16T10:03:45.202Z,100810.97
2023-05-16T10:06:50.774Z,100815.91
2023-05-16T10:09:55.270Z,100809.59
2023-05-16T10:13:01.474Z,100799.59
2023-05-16T10:16:10.195Z,100809.97
2023-05-16T10:19:16.911Z,100796.84
2023-05-16T10:22:20.428Z,100791.09
2023-05-16T10:25:34.394Z,100813.16
2023-05-16T10:28:36.978Z,100809.75
2023-05-16T10:31:39.331Z,100829.88
2023-05-16T10:34:42.723Z,100808.94
2023-05-16T10:37:46.582Z,100818.66
2023-05-16T10:40:49.925Z,100807.94
2023-05-16T10:44:02.374Z,100801.06
2023-05-16T10:47:05.257Z,100800.28
2023-05-16T10:50:07.814Z,100808.66
2023-05-16T10:53:22.238Z,100793.16
2023-05-16T10:56:27.467Z,100797.22
2023-05-16T10:59:29.530Z,100807.38
2023-05-16T11:02:34.919Z,100801.50
2023-05-16T11:05:37.368Z,100808.97
2023-05-16T11:09:06.969Z,100800.00
2023-05-16T11:12:10.393Z,100822.84
2023-05-16T11:15:29.498Z,100827.56
2023-05-16T11:18:36.442Z,100804.94
2023-05-16T11:22:10.730Z,100827.69
2023-05-16T11:25:15.073Z,100815.47
2023-05-16T11:28:21.744Z,100813.63
2023-05-16T11:31:23.972Z,100813.09
2023-05-16T11:34:26.184Z,100812.41
2023-05-16T11:37:28.353Z,100816.38
2023-05-16T11:40:30.624Z,100803.16
2023-05-16T11:43:46.243Z,100818.78
2023-05-16T11:46:48.374Z,100812.16
2023-05-16T11:49:50.438Z,100810.31
2023-05-16T11:52:54.813Z,100802.25
2023-05-16T11:55:57.067Z,100815.09
2023-05-16T11:59:05.740Z,100797.94
2023-05-16T12:02:10.107Z,100824.38
2023-05-16T12:05:12.016Z,100814.50
2023-05-16T12:08:16.810Z,100816.16
2023-05-16T12:11:19.301Z,100817.53
2023-05-16T12:14:23.171Z,100827.22
2023-05-16T12:17:25.509Z,100817.47
2023-05-16T12:20:27.647Z,100816.25
2023-05-16T12:23:39.146Z,100827.34
2023-05-16T12:26:42.703Z,100827.56
2023-05-16T12:29:48.726Z,100844.47
2023-05-16T12:33:10.730Z,100828.78
2023-05-16T12:36:19.764Z,100821.09
2023-05-16T12:39:29.096Z,100816.66
2023-05-16T12:42:31.952Z,100824.19
2023-05-16T12:45:35.613Z,100816.91
2023-05-16T12:48:39.494Z,100817.22
2023-05-16T12:51:49.312Z,100822.78
2023-05-16T12:54:51.808Z,100829.50
2023-05-16T12:57:57.090Z,100836.72
2023-05-16T13:00:59.555Z,100827.78
2023-05-16T13:04:05.350Z,100840.22
2023-05-16T13:07:07.690Z,100839.91
2023-05-16T13:10:11.764Z,100835.63
2023-05-16T13:13:25.110Z,100832.91
2023-05-16T13:16:34.031Z,100838.69
2023-05-16T13:19:36.971Z,100845.69
2023-05-16T13:22:39.777Z,100862.28
2023-05-16T13:25:44.245Z,100848.06
2023-05-16T13:28:46.910Z,100850.72
2023-05-16T13:31:56.504Z,100864.44
2023-05-16T13:34:58.864Z,100847.41
2023-05-16T13:38:01.433Z,100855.50
2023-05-16T13:41:03.542Z,100852.06
2023-05-16T13:44:05.488Z,100857.84
2023-05-16T13:47:07.836Z,100847.97
2023-05-16T13:50:11.138Z,100851.84
2023-05-16T13:53:13.031Z,100842.25
2023-05-16T13:56:15.601Z,100859.31
2023-05-16T13:59:31.181Z,100855.16
2023-05-16T14:02:38.642Z,100860.34
2023-05-16T14:05:46.046Z,100862.66
2023-05-16T14:08:48.382Z,100863.09
2023-05-16T14:11:50.577Z,100869.69
2023-05-16T14:14:52.373Z,100887.75
2023-05-16T14:17:54.689Z,100881.19
2023-05-16T14:20:56.807Z,100877.13
2023-05-16T14:23:59.248Z,100903.47
2023-05-16T14:27:04.085Z,100904.28
2023-05-16T14:30:06.958Z,100905.31
2023-05-16T14:33:09.579Z,100905.28
2023-05-16T14:36:12.328Z,100909.38
2023-05-16T14:39:14.602Z,100903.78
2023-05-16T14:42:19.564Z,100904.75
2023-05-16T14:45:21.967Z,100910.34
2023-05-16T14:48:24.606Z,100909.63
2023-05-16T14:51:26.673Z,100918.59
2023-05-16T14:54:29.063Z,100914.69
2023-05-16T14:57:31.119Z,100906.75
2023-05-16T15:00:33.256Z,100918.09
2023-05-16T15:03:46.865Z,100919.66
2023-05-16T15:06:56.330Z,100924.53
2023-05-16T15:09:58.726Z,100923.13
2023-05-16T15:13:00.965Z,100912.75
2023-05-16T15:16:03.029Z,100928.06
2023-05-16T15:19:05.592Z,100923.63
2023-05-16T15:22:08.942Z,100923.91
2023-05-16T15:25:11.148Z,100928.22
2023-05-16T15:28:13.786Z,100925.84
2023-05-16T15:31:16.517Z,100913.13
2023-05-16T15:34:18.916Z,100912.28
2023-05-16T15:37:21.684Z,100919.09
2023-05-16T15:40:26.972Z,100925.47
2023-05-16T15:43:29.518Z,100939.91
2023-05-16T15:46:35.166Z,100925.31
2023-05-16T15:49:37.536Z,100933.59
2023-05-16T15:52:40.097Z,100920.81
2023-05-16T15:55:43.129Z,100931.34
2023-05-16T15:58:46.916Z,100930.06
2023-05-16T16:01:49.283Z,100935.59
2023-05-16T16:04:56.472Z,100949.41
2023-05-16T16:07:58.687Z,100950.97
2023-05-16T16:11:00.876Z,100948.66
2023-05-16T16:14:02.787Z,100948.19
2023-05-16T16:17:07.439Z,100942.84
2023-05-16T16:20:10.191Z,100948.16
2023-05-16T16:23:12.775Z,100949.53
2023-05-16T16:26:15.676Z,100940.50
2023-05-16T16:29:20.658Z,100933.84
2023-05-16T16:32:22.768Z,100943.63
2023-05-16T16:35:26.253Z,100949.13
2023-05-16T16:38:28.329Z,100954.00
2023-05-16T16:41:30.638Z,100948.47
2023-05-16T16:44:32.994Z,100944.94
2023-05-16T16:47:43.488Z,100945.56
2023-05-16T16:50:46.301Z,100943.75
2023-05-16T16:53:49.116Z,100953.09
2023-05-16T16:56:53.115Z,100951.22
2023-05-16T16:59:59.575Z,100945.41
2023-05-16T17:03:04.624Z,100955.09
2023-05-16T17:06:07.054Z,100952.28
2023-05-16T17:09:13.879Z,100956.25
2023-05-16T17:12:19.124Z,100961.38
2023-05-16T17:15:21.943Z,100965.38
2023-05-16T17:18:24.268Z,100954.13
2023-05-16T17:21:27.409Z,100960.84
2023-05-16T17:24:29.674Z,100967.97
2023-05-16T17:27:32.555Z,100960.94
2023-05-16T17:30:34.941Z,100974.19
2023-05-16T17:33:37.217Z,100970.47
2023-05-16T17:36:39.625Z,100970.91
2023-05-16T17:39:41.784Z,100980.00
2023-05-16T17:42:46.001Z,100972.81
2023-05-16T17:45:48.344Z,100971.44
2023-05-16T17:48:50.476Z,100981.34
2023-05-16T17:51:56.860Z,100974.00
2023-05-16T17:54:58.916Z,100974.66
2023-05-16T17:58:01.623Z,100978.56
2023-05-16T18:01:09.410Z,100979.97
2023-05-16T18:04:13.464Z,100974.34
2023-05-16T18:07:15.758Z,100981.44
2023-05-16T18:10:18.272Z,100986.66
2023-05-16T18:13:21.958Z,100985.63
2023-05-16T18:16:24.689Z,100988.78
2023-05-16T18:19:26.917Z,100982.06
2023-05-16T18:22:28.928Z,100991.66
2023-05-16T18:25:31.472Z,100991.03
2023-05-16T18:28:34.006Z,100993.44
2023-05-16T18:31:38.730Z,101002.75
2023-05-16T18:34:41.182Z,101003.19
2023-05-16T18:37:44.356Z,100997.84
2023-05-16T18:40:48.075Z,101012.56
2023-05-16T18:43:50.229Z,101011.09
2023-05-16T18:46:52.273Z,101018.09
2023-05-16T18:49:54.704Z,101023.28
2023-05-16T18:52:57.937Z,101023.06
2023-05-16T18:56:00.444Z,101030.81
2023-05-16T18:59:02.485Z,101030.19
2023-05-16T19:02:04.938Z,101041.41
2023-05-16T19:05:07.553Z,101039.28
2023-05-16T19:08:09.640Z,101045.53
2023-05-16T19:11:11.692Z,101047.31
2023-05-16T19:14:13.725Z,101056.78
2023-05-16T19:17:15.641Z,101063.41
2023-05-16T19:20:17.531Z,101063.63
2023-05-16T19:23:19.373Z,101060.66
2023-05-16T19:26:23.346Z,101068.13
2023-05-16T19:29:25.237Z,101066.72
2023-05-16T19:32:27.416Z,101070.41
2023-05-16T19:35:29.985Z,101076.47
2023-05-16T19:38:32.371Z,101073.13
2023-05-16T19:41:34.286Z,101078.25
2023-05-16T19:44:36.081Z,101078.19
2023-05-16T19:47:38.235Z,101080.16
2023-05-16T19:50:40.119Z,101075.13
2023-05-16T19:53:43.065Z,101079.84
2023-05-16T19:56:44.963Z,101074.78
2023-05-16T19:59:47.875Z,101069.53
2023-05-16T20:02:50.246Z,101078.53
2023-05-16T20:05:52.148Z,101079.22
2023-05-16T20:08:53.759Z,101073.84
2023-05-16T20:11:57.449Z,101079.25
2023-05-16T20:15:01.788Z,101080.28
2023-05-16T20:18:03.803Z,101086.47
2023-05-16T20:21:06.427Z,101084.19
2023-05-16T20:24:08.293Z,101083.50
2023-05-16T20:27:11.612Z,101093.31
2023-05-16T20:30:14.515Z,101091.84
2023-05-16T20:33:17.224Z,101096.00
2023-05-16T20:36:19.774Z,101091.44
2023-05-16T20:39:22.392Z,101084.19
2023-05-16T20:42:24.536Z,101088.44
2023-05-16T20:45:28.963Z,101090.81
2023-05-16T20:48:31.190Z,101083.75
2023-05-16T20:51:33.302Z,101082.63
2023-05-16T20:54:35.211Z,101086.00
2023-05-16T20:57:43.880Z,101086.94
2023-05-16T21:00:45.921Z,101086.31
2023-05-16T21:03:47.677Z,101085.38
2023-05-16T21:06:49.335Z,101081.53
2023-05-16T21:09:51.231Z,101075.34
2023-05-16T21:12:53.164Z,101085.16
2023-05-16T21:15:55.295Z,101082.38
2023-05-16T21:18:57.563Z,101079.78
2023-05-16T21:21:59.704Z,101080.81
2023-05-16T21:25:02.010Z,101079.88
2023-05-16T21:28:04.344Z,101079.88
2023-05-16T21:31:06.599Z,101078.75
2023-05-16T21:34:09.911Z,101081.44
2023-05-16T21:37:12.092Z,101081.19
2023-05-16T21:40:24.812Z,101085.16
2023-05-16T21:43:26.606Z,101092.56
2023-05-16T21:46:28.502Z,101086.56
2023-05-16T21:49:30.377Z,101087.91
2023-05-16T21:52:32.213Z,101092.97
2023-05-16T21:55:34.195Z,101096.66
2023-05-16T21:58:37.762Z,101094.34
2023-05-16T22:01:39.601Z,101100.25
2023-05-16T22:04:41.281Z,101102.47
2023-05-16T22:07:43.244Z,101102.00
2023-05-16T22:10:44.994Z,101108.19
2023-05-16T22:13:47.024Z,101108.50
2023-05-16T22:16:48.865Z,101099.59
2023-05-16T22:19:50.918Z,101102.78
2023-05-16T22:22:52.933Z,101102.78
2023-05-16T22:25:55.077Z,101102.25
2023-05-16T22:28:56.626Z,101100.28
2023-05-16T22:31:59.789Z,101104.84
2023-05-16T22:35:01.634Z,101109.63
2023-05-16T22:38:03.521Z,101110.47
2023-05-16T22:41:05.415Z,101098.59
2023-05-16T22:44:07.359Z,101101.25
2023-05-16T22:47:09.447Z,101108.84
2023-05-16T22:50:11.505Z,101111.50
2023-05-16T22:53:13.260Z,101110.88
2023-05-16T22:56:15.225Z,101110.63
2023-05-16T22:59:17.369Z,101114.28
2023-05-16T23:02:19.508Z,101110.63
2023-05-16T23:05:21.582Z,101117.81
2023-05-16T23:08:25.208Z,101109.13
2023-05-16T23:11:27.171Z,101106.75
2023-05-16T23:14:28.910Z,101106.00
2023-05-16T23:17:30.638Z,101106.94
2023-05-16T23:20:32.742Z,101105.06
2023-05-16T23:23:34.536Z,101115.00
2023-05-16T23:26:36.421Z,101119.09
2023-05-16T23:29:38.206Z,101125.91
2023-05-16T23:32:40.047Z,101116.53
2023-05-16T23:35:41.911Z,101120.34
2023-05-16T23:38:44.019Z,101126.84
2023-05-16T23:41:45.896Z,101127.06
2023-05-16T23:44:48.975Z,101127.34
2023-05-16T23:47:51.475Z,101134.63
2023-05-16T23:50:53.250Z,101131.88
2023-05-16T23:53:55.112Z,101128.38
2023-05-16T23:56:57.464Z,101139.06
2023-05-16T23:59:59.438Z,101129.38
